.
WxDataArchive / Data Records for 2013-11-24
2013-11-23 November 2013 2013-11-25

Data Records for Sunday, 24 November 2013

Time	Temp	Chill	HIndex	Humid	Dewpt	 Wind 	HiWind	WindDir	Rain 	Barom 
-----	----	-----	------	-----	-----	------	------	-------	-----	----- 
00:00	16.4	16.4	16.4	69	8.0	0	0	---	0.00	30.608 
00:05	16.4	16.4	16.4	69	8.0	0	0	---	0.00	30.608 
00:10	16.2	16.2	16.2	70	8.2	0	0	---	0.00	30.608 
00:15	16.2	16.2	16.2	71	8.5	0	0	---	0.00	30.610 
00:20	16.2	16.2	16.2	71	8.5	0	0	---	0.00	30.610 
00:25	16.2	16.2	16.2	71	8.5	0	0	---	0.00	30.610 
00:30	16.1	16.1	16.1	72	8.7	0	0	---	0.00	30.611 
00:35	16.1	16.1	16.1	72	8.7	0	0	---	0.00	30.611 
00:40	16.2	16.2	16.2	72	8.8	0	0	---	0.00	30.611 
00:45	16.2	16.2	16.2	72	8.8	0	0	---	0.00	30.609 
00:50	16.1	16.1	16.1	73	9.0	0	0	---	0.00	30.609 
00:55	16.2	16.2	16.2	73	9.1	0	0	---	0.00	30.609 
01:00	16.2	16.2	16.2	73	9.1	0	0	---	0.00	30.609 
01:05	16.2	16.2	16.2	73	9.1	0	0	---	0.00	30.609 
01:10	16.4	16.4	16.4	73	9.3	0	0	---	0.00	30.609 
01:15	16.5	16.5	16.5	73	9.4	0	0	---	0.00	30.607 
01:20	16.7	16.7	16.7	73	9.6	0	0	---	0.00	30.607 
01:25	16.9	16.9	16.9	73	9.8	0	1	315	0.00	30.607 
01:30	17.0	17.0	17.0	73	9.9	0	2	315	0.00	30.594 
01:35	17.2	17.2	17.2	72	9.8	0	1	315	0.00	30.594 
01:40	17.3	17.3	17.3	72	9.8	0	2	315	0.00	30.594 
01:45	17.2	17.2	17.2	72	9.8	0	1	315	0.00	30.594 
01:50	17.2	17.2	17.2	71	9.4	0	1	315	0.00	30.594 
01:55	17.2	17.2	17.2	71	9.4	0	1	315	0.00	30.594 
02:00	17.0	17.0	17.0	71	9.2	0	1	315	0.00	30.593 
02:05	17.0	17.0	17.0	71	9.2	0	1	315	0.00	30.593 
02:10	17.0	17.0	17.0	71	9.2	0	1	315	0.00	30.593 
02:15	16.9	16.9	16.9	72	9.5	0	1	315	0.00	30.603 
02:20	16.9	16.9	16.9	72	9.5	0	0	---	0.00	30.603 
02:25	16.9	16.9	16.9	72	9.5	0	0	---	0.00	30.603 
02:30	16.9	16.9	16.9	72	9.5	0	0	---	0.00	30.596 
02:35	16.9	16.9	16.9	71	9.2	0	1	315	0.00	30.596 
02:40	16.7	16.7	16.7	71	9.0	0	0	---	0.00	30.596 
02:45	16.7	16.7	16.7	71	9.0	0	1	315	0.00	30.598 
02:50	16.7	16.7	16.7	71	9.0	0	0	---	0.00	30.598 
02:55	16.7	16.7	16.7	70	8.6	0	2	315	0.00	30.598 
03:00	16.5	16.5	16.5	70	8.5	0	0	---	0.00	30.598 
03:05	16.5	16.5	16.5	71	8.8	0	0	---	0.00	30.598 
03:10	16.4	16.4	16.4	71	8.7	0	0	---	0.00	30.598 
03:15	16.2	16.2	16.2	72	8.8	0	0	---	0.00	30.604 
03:20	16.2	16.2	16.2	73	9.1	0	0	---	0.00	30.604 
03:25	16.2	16.2	16.2	73	9.1	0	1	315	0.00	30.604 
03:30	16.2	16.2	16.2	74	9.4	0	1	315	0.00	30.612 
03:35	16.2	16.2	16.2	74	9.4	0	0	---	0.00	30.612 
03:40	16.4	16.4	16.4	75	9.9	0	1	315	0.00	30.612 
03:45	16.5	16.5	16.5	75	10.0	0	1	315	0.00	30.613 
03:50	16.7	16.7	16.7	75	10.2	0	1	315	0.00	30.613 
03:55	16.7	16.7	16.7	75	10.2	0	0	---	0.00	30.613 
04:00	16.9	16.9	16.9	75	10.4	0	1	315	0.00	30.619 
04:05	17.0	17.0	17.0	76	10.8	0	0	---	0.00	30.619 
04:10	17.0	17.0	17.0	76	10.8	0	1	315	0.00	30.619 
04:15	16.9	16.9	16.9	76	10.7	0	0	---	0.00	30.620 
04:20	16.9	16.9	16.9	76	10.7	0	0	---	0.00	30.620 
04:25	16.9	16.9	16.9	76	10.7	0	0	---	0.00	30.620 
04:30	16.9	16.9	16.9	76	10.7	0	0	---	0.00	30.618 
04:35	16.9	16.9	16.9	76	10.7	0	1	315	0.00	30.618 
04:40	16.9	16.9	16.9	75	10.4	0	1	315	0.00	30.618 
04:45	16.9	16.9	16.9	75	10.4	0	1	315	0.00	30.615 
04:50	16.7	16.7	16.7	74	9.9	0	2	0	0.00	30.615 
04:55	16.9	16.9	16.9	74	10.1	0	1	0	0.00	30.615 
05:00	16.7	16.7	16.7	74	9.9	0	0	---	0.00	30.626 
05:05	16.5	16.5	16.5	74	9.7	0	0	---	0.00	30.626 
05:10	16.5	16.5	16.5	74	9.7	0	1	0	0.00	30.626 
05:15	16.4	16.4	16.4	74	9.6	0	0	---	0.00	30.633 
05:20	16.4	16.4	16.4	74	9.6	0	0	---	0.00	30.633 
05:25	16.2	16.2	16.2	74	9.4	0	0	---	0.00	30.633 
05:30	16.1	16.1	16.1	75	9.6	0	0	---	0.00	30.633 
05:35	15.9	15.9	15.9	75	9.4	0	0	---	0.00	30.633 
05:40	15.7	15.7	15.7	76	9.5	0	0	---	0.00	30.633 
05:45	15.4	15.4	15.4	76	9.2	0	0	---	0.00	30.632 
05:50	15.2	15.2	15.2	77	9.3	0	0	---	0.00	30.632 
05:55	15.1	15.1	15.1	77	9.2	0	0	---	0.00	30.632 
06:00	14.9	14.9	14.9	77	9.0	0	0	---	0.00	30.627 
06:05	14.8	14.8	14.8	78	9.2	0	0	---	0.00	30.627 
06:10	14.6	14.6	14.6	78	9.0	0	0	---	0.00	30.627 
06:15	14.4	14.4	14.4	79	9.1	0	0	---	0.00	30.623 
06:20	14.3	14.3	14.3	80	9.3	0	1	0	0.00	30.623 
06:25	14.3	14.3	14.3	80	9.3	0	0	---	0.00	30.623 
06:30	14.1	14.1	14.1	80	9.1	0	0	---	0.00	30.632 
06:35	14.0	14.0	14.0	81	9.3	0	0	---	0.00	30.632 
06:40	14.0	14.0	14.0	81	9.3	0	0	---	0.00	30.632 
06:45	14.0	14.0	14.0	81	9.3	0	0	---	0.00	30.634 
06:50	14.0	14.0	14.0	81	9.3	0	0	---	0.00	30.634 
06:55	14.1	14.1	14.1	82	9.6	0	0	---	0.00	30.634 
07:00	14.1	14.1	14.1	82	9.6	0	0	---	0.00	30.635 
07:05	14.1	14.1	14.1	82	9.6	0	0	---	0.00	30.635 
07:10	14.0	14.0	14.0	82	9.5	0	0	---	0.00	30.635 
07:15	14.0	14.0	14.0	82	9.5	0	0	---	0.00	30.637 
07:20	13.8	13.8	13.8	82	9.3	0	0	---	0.00	30.637 
07:25	13.8	13.8	13.8	82	9.3	0	0	---	0.00	30.637 
07:30	13.8	13.8	13.8	82	9.3	0	0	---	0.00	30.639 
07:35	13.6	13.6	13.6	82	9.1	0	0	---	0.00	30.639 
07:40	13.8	13.8	13.8	83	9.6	0	0	---	0.00	30.639 
07:45	13.8	13.8	13.8	83	9.6	0	0	---	0.00	30.652 
07:50	14.0	14.0	14.0	83	9.8	0	0	---	0.00	30.652 
07:55	14.3	14.3	14.3	83	10.1	0	0	---	0.00	30.652 
08:00	14.6	14.6	14.6	83	10.4	0	0	---	0.00	30.658 
08:05	14.9	14.9	14.9	84	11.0	0	0	---	0.00	30.658 
08:10	15.1	15.1	15.1	84	11.2	0	0	---	0.00	30.658 
08:15	15.4	15.4	15.4	83	11.2	0	0	---	0.00	30.668 
08:20	15.7	15.7	15.7	83	11.5	0	1	0	0.00	30.668 
08:25	16.1	16.1	16.1	83	11.9	0	1	0	0.00	30.668 
08:30	16.4	16.4	16.4	83	12.2	0	1	0	0.00	30.672 
08:35	16.5	16.5	16.5	82	12.0	0	1	0	0.00	30.672 
08:40	16.9	16.9	16.9	81	12.1	0	1	0	0.00	30.672 
08:45	17.0	17.0	17.0	81	12.2	0	1	0	0.00	30.669 
08:50	17.3	17.3	17.3	81	12.5	0	1	0	0.00	30.669 
08:55	17.5	17.5	17.5	81	12.7	0	1	0	0.00	30.669 
09:00	17.8	17.8	17.8	80	12.7	0	1	0	0.00	30.669 
09:05	18.0	18.0	18.0	79	12.6	0	2	0	0.00	30.669 
09:10	18.1	18.1	18.1	79	12.7	0	1	0	0.00	30.669 
09:15	18.3	18.3	18.3	78	12.6	0	1	0	0.00	30.681 
09:20	18.6	18.6	18.6	77	12.6	0	2	0	0.00	30.681 
09:25	18.9	18.9	18.9	76	12.6	0	1	292	0.00	30.681 
09:30	19.1	19.1	19.1	75	12.5	0	1	292	0.00	30.688 
09:35	19.2	19.2	19.2	74	12.3	0	1	292	0.00	30.688 
09:40	19.4	19.4	19.4	74	12.5	0	1	292	0.00	30.688 
09:45	19.5	19.5	19.5	73	12.3	0	1	292	0.00	30.686 
09:50	19.7	19.7	19.7	73	12.5	0	2	292	0.00	30.686 
09:55	19.9	19.9	19.9	72	12.4	0	2	292	0.00	30.686 
10:00	20.0	20.0	20.0	72	12.5	0	2	292	0.00	30.694 
10:05	20.2	20.2	20.2	70	12.0	1	2	292	0.00	30.694 
10:10	20.3	20.3	20.3	70	12.1	0	2	292	0.00	30.694 
10:15	20.5	20.5	20.5	70	12.3	1	4	248	0.00	30.695 
10:20	20.6	20.6	20.6	70	12.4	0	3	248	0.00	30.695 
10:25	20.6	20.6	20.6	70	12.4	1	4	248	0.00	30.695 
10:30	20.8	20.8	20.8	70	12.6	0	3	270	0.00	30.687 
10:35	21.1	21.1	21.1	70	12.9	0	2	270	0.00	30.687 
10:40	21.3	21.3	21.3	71	13.4	0	2	270	0.00	30.687 
10:45	21.6	21.6	21.6	71	13.7	1	3	270	0.00	30.689 
10:50	21.8	21.8	21.8	70	13.5	1	3	270	0.00	30.689 
10:55	21.9	21.9	21.9	71	14.0	1	3	270	0.00	30.689 
11:00	22.1	22.1	22.1	70	13.8	1	3	270	0.00	30.683 
11:05	22.1	22.1	22.1	71	14.2	0	2	270	0.00	30.683 
11:10	22.4	22.4	22.4	70	14.1	0	2	270	0.00	30.683 
11:15	22.5	22.5	22.5	70	14.2	0	3	270	0.00	30.680 
11:20	22.7	22.7	22.7	71	14.7	0	3	270	0.00	30.680 
11:25	22.7	22.7	22.7	70	14.4	1	3	270	0.00	30.680 
11:30	22.7	22.7	22.7	69	14.1	1	3	270	0.00	30.676 
11:35	22.7	22.7	22.7	70	14.4	0	2	270	0.00	30.676 
11:40	22.9	22.9	22.9	70	14.6	0	3	270	0.00	30.676 
11:45	23.0	23.0	23.0	70	14.7	0	2	270	0.00	30.665 
11:50	23.0	23.0	23.0	69	14.4	0	2	270	0.00	30.665 
11:55	23.2	23.2	23.2	70	14.9	0	3	270	0.00	30.665 
12:00	23.6	23.6	23.6	69	14.9	1	3	270	0.00	30.659 
12:05	23.9	23.9	23.9	67	14.6	0	3	270	0.00	30.659 
12:10	23.9	23.9	23.9	63	13.2	1	4	270	0.00	30.659 
12:15	23.6	23.6	23.6	62	12.5	1	3	270	0.00	30.648 
12:20	23.5	23.5	23.5	64	13.1	1	3	270	0.00	30.648 
12:25	23.5	23.5	23.5	66	13.8	1	3	270	0.00	30.648 
12:30	23.5	23.5	23.5	67	14.2	0	2	270	0.00	30.647 
12:35	23.5	23.5	23.5	67	14.2	0	3	270	0.00	30.647 
12:40	23.9	23.9	23.9	67	14.6	0	4	270	0.00	30.647 
12:45	24.2	24.2	24.2	62	13.1	1	4	270	0.00	30.644 
12:50	24.2	24.2	24.2	61	12.7	1	4	270	0.00	30.644 
12:55	24.2	24.2	24.2	59	12.0	2	4	270	0.00	30.644 
13:00	24.1	24.1	24.1	60	12.3	1	2	270	0.00	30.639 
13:05	24.2	24.2	24.2	61	12.7	1	3	270	0.00	30.639 
13:10	24.1	24.1	24.1	61	12.6	0	2	270	0.00	30.639 
13:15	23.9	23.9	23.9	62	12.8	1	3	270	0.00	30.631 
13:20	24.2	24.2	24.2	63	13.4	1	4	270	0.00	30.631 
13:25	24.4	24.4	24.4	62	13.3	1	3	270	0.00	30.631 
13:30	24.4	24.4	24.4	62	13.3	0	2	270	0.00	30.628 
13:35	24.4	24.4	24.4	61	12.9	2	3	270	0.00	30.628 
13:40	24.2	24.2	24.2	62	13.1	1	4	292	0.00	30.628 
13:45	24.4	24.4	24.4	62	13.3	1	3	292	0.00	30.625 
13:50	25.0	25.0	25.0	61	13.5	2	5	292	0.00	30.625 
13:55	25.6	25.6	25.6	59	13.3	1	5	315	0.00	30.625 
14:00	25.8	25.8	25.8	57	12.7	1	3	270	0.00	30.613 
14:05	25.6	25.6	25.6	56	12.1	1	3	270	0.00	30.613 
14:10	25.4	25.4	25.4	57	12.3	1	4	270	0.00	30.613 
14:15	25.3	25.3	25.3	56	11.8	1	4	270	0.00	30.610 
14:20	25.3	25.3	25.3	56	11.8	1	4	270	0.00	30.610 
14:25	25.1	25.1	25.1	55	11.2	1	4	270	0.00	30.610 
14:30	25.0	25.0	25.0	54	10.7	1	5	270	0.00	30.599 
14:35	25.0	25.0	25.0	54	10.7	1	4	270	0.00	30.599 
14:40	25.0	25.0	25.0	56	11.5	1	3	270	0.00	30.599 
14:45	24.8	24.8	24.8	58	12.1	1	4	270	0.00	30.597 
14:50	24.8	24.8	24.8	61	13.3	1	4	248	0.00	30.597 
14:55	24.7	24.7	24.7	63	13.9	1	3	248	0.00	30.597 
15:00	24.7	24.7	24.7	63	13.9	1	2	248	0.00	30.594 
15:05	24.7	24.7	24.7	63	13.9	0	3	248	0.00	30.594 
15:10	24.8	24.8	24.8	63	14.0	1	4	270	0.00	30.594 
15:15	25.6	25.6	25.6	63	14.8	1	6	270	0.00	30.593 
15:20	25.8	25.8	25.8	61	14.2	1	5	248	0.00	30.593 
15:25	25.6	25.6	25.6	61	14.0	1	3	248	0.00	30.593 
15:30	25.6	25.6	25.6	59	13.3	1	3	248	0.00	30.589 
15:35	25.8	25.8	25.8	56	12.3	1	3	248	0.00	30.589 
15:40	25.8	25.8	25.8	56	12.3	1	3	248	0.00	30.589 
15:45	26.0	26.0	26.0	57	12.9	1	5	248	0.00	30.596 
15:50	26.0	26.0	26.0	55	12.1	1	3	248	0.00	30.596 
15:55	25.8	25.8	25.8	55	11.9	1	6	248	0.00	30.596 
16:00	25.7	25.7	25.7	55	11.8	1	4	248	0.00	30.592 
16:05	25.4	25.4	25.4	54	11.1	1	4	248	0.00	30.592 
16:10	25.0	25.0	25.0	55	11.1	1	4	248	0.00	30.592 
16:15	24.7	24.7	24.7	54	10.5	1	3	248	0.00	30.596 
16:20	24.4	24.4	24.4	55	10.6	1	4	270	0.00	30.596 
16:25	24.2	24.2	24.2	57	11.2	1	2	292	0.00	30.596 
16:30	24.1	24.1	24.1	58	11.5	1	3	292	0.00	30.598 
16:35	23.9	23.9	23.9	59	11.7	0	3	292	0.00	30.598 
16:40	23.9	23.9	23.9	58	11.3	0	1	292	0.00	30.598 
16:45	23.8	23.8	23.8	58	11.2	0	2	292	0.00	30.597 
16:50	23.6	23.6	23.6	58	11.0	0	2	292	0.00	30.597 
16:55	23.6	23.6	23.6	58	11.0	0	1	292	0.00	30.597 
17:00	23.5	23.5	23.5	57	10.5	0	2	292	0.00	30.595 
17:05	23.5	23.5	23.5	58	10.9	0	2	292	0.00	30.595 
17:10	23.3	23.3	23.3	58	10.7	0	3	292	0.00	30.595 
17:15	23.2	23.2	23.2	58	10.6	0	1	292	0.00	30.589 
17:20	23.2	23.2	23.2	59	11.0	0	1	292	0.00	30.589 
17:25	23.0	23.0	23.0	59	10.8	0	1	292	0.00	30.589 
17:30	22.9	22.9	22.9	59	10.7	0	1	292	0.00	30.582 
17:35	22.7	22.7	22.7	60	10.9	0	0	---	0.00	30.582 
17:40	22.5	22.5	22.5	60	10.7	0	0	---	0.00	30.582 
17:45	22.4	22.4	22.4	60	10.6	0	0	---	0.00	30.582 
17:50	22.2	22.2	22.2	61	10.8	0	0	---	0.00	30.582 
17:55	22.2	22.2	22.2	61	10.8	0	0	---	0.00	30.582 
18:00	21.9	21.9	21.9	62	10.9	0	0	---	0.00	30.582 
18:05	21.8	21.8	21.8	62	10.8	0	0	---	0.00	30.582 
18:10	21.6	21.6	21.6	63	11.0	0	0	---	0.00	30.582 
18:15	21.4	21.4	21.4	63	10.8	0	0	---	0.00	30.586 
18:20	21.1	21.1	21.1	64	10.9	0	0	---	0.00	30.586 
18:25	21.0	21.0	21.0	64	10.8	0	0	---	0.00	30.586 
18:30	20.6	20.6	20.6	65	10.7	0	0	---	0.00	30.586 
18:35	20.5	20.5	20.5	65	10.6	0	0	---	0.00	30.586 
18:40	20.2	20.2	20.2	66	10.7	0	0	---	0.00	30.586 
18:45	20.0	20.0	20.0	67	10.8	0	0	---	0.00	30.579 
18:50	19.9	19.9	19.9	67	10.7	0	0	---	0.00	30.579 
18:55	19.7	19.7	19.7	68	10.9	0	0	---	0.00	30.579 
19:00	19.5	19.5	19.5	69	11.0	0	0	---	0.00	30.571 
19:05	19.4	19.4	19.4	69	10.9	0	0	---	0.00	30.571 
19:10	19.2	19.2	19.2	70	11.0	0	0	---	0.00	30.571 
19:15	19.1	19.1	19.1	70	11.0	0	0	---	0.00	30.564 
19:20	18.8	18.8	18.8	71	11.0	0	0	---	0.00	30.564 
19:25	18.6	18.6	18.6	71	10.8	0	0	---	0.00	30.564 
19:30	18.4	18.4	18.4	72	10.9	0	0	---	0.00	30.560 
19:35	18.3	18.3	18.3	72	10.8	0	0	---	0.00	30.560 
19:40	18.1	18.1	18.1	73	10.9	0	0	---	0.00	30.560 
19:45	18.1	18.1	18.1	73	10.9	0	0	---	0.00	30.560 
19:50	18.0	18.0	18.0	73	10.8	0	0	---	0.00	30.560 
19:55	17.8	17.8	17.8	73	10.6	0	0	---	0.00	30.560 
20:00	17.7	17.7	17.7	74	10.8	0	0	---	0.00	30.559 
20:05	17.7	17.7	17.7	75	11.1	0	0	---	0.00	30.559 
20:10	17.5	17.5	17.5	75	11.0	0	0	---	0.00	30.559 
20:15	17.5	17.5	17.5	76	11.3	0	0	---	0.00	30.546 
20:20	17.5	17.5	17.5	76	11.3	0	0	---	0.00	30.546 
20:25	17.5	17.5	17.5	77	11.5	0	0	---	0.00	30.546 
20:30	17.5	17.5	17.5	77	11.5	0	0	---	0.00	30.542 
20:35	17.5	17.5	17.5	77	11.5	0	0	---	0.00	30.542 
20:40	17.5	17.5	17.5	77	11.5	0	0	---	0.00	30.542 
20:45	17.5	17.5	17.5	77	11.5	0	0	---	0.00	30.541 
20:50	17.7	17.7	17.7	77	11.7	0	0	---	0.00	30.541 
20:55	17.7	17.7	17.7	77	11.7	0	0	---	0.00	30.541 
21:00	17.5	17.5	17.5	77	11.5	0	0	---	0.00	30.538 
21:05	17.5	17.5	17.5	77	11.5	0	0	---	0.00	30.538 
21:10	17.5	17.5	17.5	77	11.5	0	0	---	0.00	30.538 
21:15	17.5	17.5	17.5	77	11.5	0	0	---	0.00	30.534 
21:20	17.5	17.5	17.5	77	11.5	0	0	---	0.00	30.534 
21:25	17.7	17.7	17.7	77	11.7	0	0	---	0.00	30.534 
21:30	17.7	17.7	17.7	77	11.7	0	0	---	0.00	30.531 
21:35	17.7	17.7	17.7	77	11.7	0	0	---	0.00	30.531 
21:40	17.8	17.8	17.8	77	11.8	0	0	---	0.00	30.531 
21:45	17.8	17.8	17.8	77	11.8	0	0	---	0.00	30.523 
21:50	18.1	18.1	18.1	77	12.1	0	0	---	0.00	30.523 
21:55	18.3	18.3	18.3	76	12.0	0	1	292	0.00	30.523 
22:00	18.4	18.4	18.4	75	11.8	0	0	---	0.00	30.515 
22:05	18.6	18.6	18.6	75	12.0	0	1	292	0.00	30.515 
22:10	18.8	18.8	18.8	74	11.9	0	1	292	0.00	30.515 
22:15	18.8	18.8	18.8	73	11.6	0	0	---	0.00	30.513 
22:20	18.9	18.9	18.9	73	11.7	0	0	---	0.00	30.513 
22:25	18.9	18.9	18.9	72	11.4	0	1	292	0.00	30.513 
22:30	18.9	18.9	18.9	72	11.4	0	0	---	0.00	30.507 
22:35	18.9	18.9	18.9	71	11.1	0	1	292	0.00	30.507 
22:40	18.9	18.9	18.9	71	11.1	0	1	292	0.00	30.507 
22:45	18.9	18.9	18.9	70	10.8	0	0	---	0.00	30.512 
22:50	18.9	18.9	18.9	69	10.4	0	1	292	0.00	30.512 
22:55	19.1	19.1	19.1	69	10.6	0	1	292	0.00	30.512 
23:00	19.1	19.1	19.1	68	10.3	0	1	292	0.00	30.513 
23:05	19.1	19.1	19.1	68	10.3	0	1	292	0.00	30.513 
23:10	19.1	19.1	19.1	67	10.0	0	1	292	0.00	30.513 
23:15	19.1	19.1	19.1	67	10.0	0	1	292	0.00	30.505 
23:20	19.1	19.1	19.1	66	9.6	0	1	292	0.00	30.505 
23:25	18.9	18.9	18.9	66	9.4	0	0	---	0.00	30.505 
23:30	18.9	18.9	18.9	65	9.1	0	1	292	0.00	30.503 
23:35	18.9	18.9	18.9	65	9.1	0	1	292	0.00	30.503 
23:40	18.9	18.9	18.9	65	9.1	0	1	292	0.00	30.503 
23:45	18.9	18.9	18.9	65	9.1	0	0	---	0.00	30.500 
23:50	18.9	18.9	18.9	65	9.1	0	1	292	0.00	30.500 
23:55	18.9	18.9	18.9	65	9.1	0	1	292	0.00	30.500 

CoCoRaHS
IN-AL-39
A2 Web Hosting
Creative Commons License
GoDaddy
search engine by freefind advanced

loaded 2018-11-22 05:49:31 • last modified 2010-11-18 10:43:29
Privacy PolicyDisclaimer
• wx.awcolley.com is powered by PmWiki v.2002016 •
• all content (unless otherwise noted) © 2018 A W Colley